sensor_id;sensor_type;location;lat;lon;timestamp;pressure;altitude;pressure_sealevel;temperature;humidity
81937;BME280;71432;56.558;9.036;2023-11-19T00:01:34;100901.25;;;21.32;43.00
81937;BME280;71432;56.558;9.036;2023-11-19T00:03:59;100894.72;;;21.36;42.84
81937;BME280;71432;56.558;9.036;2023-11-19T00:06:25;100886.81;;;21.36;42.76
81937;BME280;71432;56.558;9.036;2023-11-19T00:08:50;100877.81;;;21.38;42.90
81937;BME280;71432;56.558;9.036;2023-11-19T00:11:16;100880.56;;;21.37;42.98
81937;BME280;71432;56.558;9.036;2023-11-19T00:13:41;100866.56;;;21.36;43.00
81937;BME280;71432;56.558;9.036;2023-11-19T00:16:07;100867.28;;;21.38;42.95
81937;BME280;71432;56.558;9.036;2023-11-19T00:18:34;100857.00;;;21.35;42.99
81937;BME280;71432;56.558;9.036;2023-11-19T00:21:00;100852.31;;;21.39;43.01
81937;BME280;71432;56.558;9.036;2023-11-19T00:23:27;100848.00;;;21.38;43.14
81937;BME280;71432;56.558;9.036;2023-11-19T00:25:52;100844.53;;;21.37;43.19
81937;BME280;71432;56.558;9.036;2023-11-19T00:28:18;100836.63;;;21.37;43.13
81937;BME280;71432;56.558;9.036;2023-11-19T00:30:43;100830.84;;;21.34;43.01
81937;BME280;71432;56.558;9.036;2023-11-19T00:33:08;100831.50;;;21.36;43.28
81937;BME280;71432;56.558;9.036;2023-11-19T00:35:33;100818.50;;;21.34;43.20
81937;BME280;71432;56.558;9.036;2023-11-19T00:37:59;100820.97;;;21.36;43.68
81937;BME280;71432;56.558;9.036;2023-11-19T00:40:25;100819.34;;;21.35;43.44
81937;BME280;71432;56.558;9.036;2023-11-19T00:42:50;100807.97;;;21.34;43.57
81937;BME280;71432;56.558;9.036;2023-11-19T00:45:16;100802.84;;;21.33;43.47
81937;BME280;71432;56.558;9.036;2023-11-19T00:47:41;100787.06;;;21.33;43.61
81937;BME280;71432;56.558;9.036;2023-11-19T00:50:07;100773.50;;;21.27;43.70
81937;BME280;71432;56.558;9.036;2023-11-19T00:52:36;100780.94;;;21.32;43.82
81937;BME280;71432;56.558;9.036;2023-11-19T00:55:02;100762.66;;;21.30;43.77
81937;BME280;71432;56.558;9.036;2023-11-19T00:57:28;100744.53;;;21.27;43.72
81937;BME280;71432;56.558;9.036;2023-11-19T00:59:53;100732.34;;;21.26;43.74
81937;BME280;71432;56.558;9.036;2023-11-19T01:02:18;100730.25;;;21.30;43.78
81937;BME280;71432;56.558;9.036;2023-11-19T01:04:44;100725.00;;;21.30;43.82
81937;BME280;71432;56.558;9.036;2023-11-19T01:07:10;100714.72;;;21.27;44.04
81937;BME280;71432;56.558;9.036;2023-11-19T01:09:38;100706.84;;;21.27;43.95
81937;BME280;71432;56.558;9.036;2023-11-19T01:12:04;100701.75;;;21.25;43.87
81937;BME280;71432;56.558;9.036;2023-11-19T01:14:30;100699.09;;;21.25;43.70
81937;BME280;71432;56.558;9.036;2023-11-19T01:16:56;100680.13;;;21.22;43.89
81937;BME280;71432;56.558;9.036;2023-11-19T01:19:22;100678.31;;;21.22;43.90
81937;BME280;71432;56.558;9.036;2023-11-19T01:21:48;100681.78;;;21.23;43.81
81937;BME280;71432;56.558;9.036;2023-11-19T01:24:13;100681.13;;;21.21;44.01
81937;BME280;71432;56.558;9.036;2023-11-19T01:26:39;100682.75;;;21.22;43.74
81937;BME280;71432;56.558;9.036;2023-11-19T01:29:09;100678.31;;;21.22;43.80
81937;BME280;71432;56.558;9.036;2023-11-19T01:31:34;100660.72;;;21.23;43.47
81937;BME280;71432;56.558;9.036;2023-11-19T01:33:59;100648.00;;;21.18;43.75
81937;BME280;71432;56.558;9.036;2023-11-19T01:36:25;100650.50;;;21.20;43.79
81937;BME280;71432;56.558;9.036;2023-11-19T01:38:50;100643.28;;;21.22;43.72
81937;BME280;71432;56.558;9.036;2023-11-19T01:41:15;100632.34;;;21.17;43.44
81937;BME280;71432;56.558;9.036;2023-11-19T01:43:41;100634.03;;;21.18;43.35
81937;BME280;71432;56.558;9.036;2023-11-19T01:46:07;100632.22;;;21.18;43.38
81937;BME280;71432;56.558;9.036;2023-11-19T01:48:35;100634.72;;;21.20;43.22
81937;BME280;71432;56.558;9.036;2023-11-19T01:51:02;100622.66;;;21.17;43.52
81937;BME280;71432;56.558;9.036;2023-11-19T01:53:29;100621.69;;;21.18;43.44
81937;BME280;71432;56.558;9.036;2023-11-19T01:55:55;100618.91;;;21.20;43.25
81937;BME280;71432;56.558;9.036;2023-11-19T01:58:22;100605.22;;;21.16;43.62
81937;BME280;71432;56.558;9.036;2023-11-19T02:00:48;100602.44;;;21.18;43.37
81937;BME280;71432;56.558;9.036;2023-11-19T02:03:14;100596.34;;;21.17;43.57
81937;BME280;71432;56.558;9.036;2023-11-19T02:05:39;100601.59;;;21.17;43.56
81937;BME280;71432;56.558;9.036;2023-11-19T02:08:05;100587.59;;;21.17;43.39
81937;BME280;71432;56.558;9.036;2023-11-19T02:10:30;100584.31;;;21.15;43.45
81937;BME280;71432;56.558;9.036;2023-11-19T02:12:57;100577.41;;;21.14;43.49
81937;BME280;71432;56.558;9.036;2023-11-19T02:15:23;100565.34;;;21.11;43.44
81937;BME280;71432;56.558;9.036;2023-11-19T02:17:50;100550.38;;;21.12;43.47
81937;BME280;71432;56.558;9.036;2023-11-19T02:20:15;100535.03;;;21.07;43.52
81937;BME280;71432;56.558;9.036;2023-11-19T02:22:41;100533.63;;;21.13;43.62
81937;BME280;71432;56.558;9.036;2023-11-19T02:25:21;100535.69;;;21.09;43.46
81937;BME280;71432;56.558;9.036;2023-11-19T02:27:59;100516.97;;;21.12;43.54
81937;BME280;71432;56.558;9.036;2023-11-19T02:30:25;100509.84;;;21.05;43.45
81937;BME280;71432;56.558;9.036;2023-11-19T02:32:58;100508.56;;;21.09;43.46
81937;BME280;71432;56.558;9.036;2023-11-19T02:35:27;100497.19;;;21.08;43.44
81937;BME280;71432;56.558;9.036;2023-11-19T02:37:52;100491.78;;;21.10;43.48
81937;BME280;71432;56.558;9.036;2023-11-19T02:40:18;100476.97;;;21.09;43.62
81937;BME280;71432;56.558;9.036;2023-11-19T02:42:43;100476.00;;;21.10;43.61
81937;BME280;71432;56.558;9.036;2023-11-19T02:45:09;100476.81;;;21.10;43.52
81937;BME280;71432;56.558;9.036;2023-11-19T02:47:42;100468.25;;;21.08;43.40
81937;BME280;71432;56.558;9.036;2023-11-19T02:50:08;100470.88;;;21.08;43.46
81937;BME280;71432;56.558;9.036;2023-11-19T02:52:42;100455.06;;;21.08;43.32
81937;BME280;71432;56.558;9.036;2023-11-19T02:55:09;100454.09;;;21.09;43.50
81937;BME280;71432;56.558;9.036;2023-11-19T02:57:37;100429.22;;;21.04;43.38
81937;BME280;71432;56.558;9.036;2023-11-19T03:00:03;100428.38;;;21.03;43.30
81937;BME280;71432;56.558;9.036;2023-11-19T03:02:39;100434.03;;;21.08;43.12
81937;BME280;71432;56.558;9.036;2023-11-19T03:05:10;100428.63;;;21.10;43.02
81937;BME280;71432;56.558;9.036;2023-11-19T03:07:35;100411.47;;;21.06;43.19
81937;BME280;71432;56.558;9.036;2023-11-19T03:10:01;100418.22;;;21.08;43.10
81937;BME280;71432;56.558;9.036;2023-11-19T03:12:26;100419.88;;;21.09;43.10
81937;BME280;71432;56.558;9.036;2023-11-19T03:14:52;100410.19;;;21.10;43.25
81937;BME280;71432;56.558;9.036;2023-11-19T03:17:17;100415.59;;;21.08;43.17
81937;BME280;71432;56.558;9.036;2023-11-19T03:19:43;100402.63;;;21.07;43.15
81937;BME280;71432;56.558;9.036;2023-11-19T03:22:09;100398.31;;;21.06;43.33
81937;BME280;71432;56.558;9.036;2023-11-19T03:24:36;100406.88;;;21.08;43.36
81937;BME280;71432;56.558;9.036;2023-11-19T03:27:01;100405.25;;;21.07;43.39
81937;BME280;71432;56.558;9.036;2023-11-19T03:29:26;100394.88;;;21.05;43.11
81937;BME280;71432;56.558;9.036;2023-11-19T03:31:53;100392.38;;;21.04;43.21
81937;BME280;71432;56.558;9.036;2023-11-19T03:34:19;100382.84;;;21.03;43.27
81937;BME280;71432;56.558;9.036;2023-11-19T03:36:44;100380.88;;;21.05;43.26
81937;BME280;71432;56.558;9.036;2023-11-19T03:39:09;100365.22;;;21.03;43.26
81937;BME280;71432;56.558;9.036;2023-11-19T03:41:34;100356.81;;;21.00;43.36
81937;BME280;71432;56.558;9.036;2023-11-19T03:44:00;100354.06;;;21.01;42.97
81937;BME280;71432;56.558;9.036;2023-11-19T03:46:25;100352.06;;;21.03;43.28
81937;BME280;71432;56.558;9.036;2023-11-19T03:48:51;100353.22;;;21.01;43.34
81937;BME280;71432;56.558;9.036;2023-11-19T03:51:16;100340.38;;;20.98;43.32
81937;BME280;71432;56.558;9.036;2023-11-19T03:53:43;100341.03;;;21.00;43.47
81937;BME280;71432;56.558;9.036;2023-11-19T03:56:09;100339.38;;;20.99;43.45
81937;BME280;71432;56.558;9.036;2023-11-19T03:58:38;100329.03;;;20.97;43.25
81937;BME280;71432;56.558;9.036;2023-11-19T04:01:04;100329.69;;;20.99;43.37
81937;BME280;71432;56.558;9.036;2023-11-19T04:03:29;100312.56;;;20.95;43.27
81937;BME280;71432;56.558;9.036;2023-11-19T04:05:54;100318.66;;;20.96;43.53
81937;BME280;71432;56.558;9.036;2023-11-19T04:08:20;100300.22;;;20.96;43.59
81937;BME280;71432;56.558;9.036;2023-11-19T04:10:45;100298.28;;;20.98;43.44
81937;BME280;71432;56.558;9.036;2023-11-19T04:13:10;100300.09;;;20.97;43.38
81937;BME280;71432;56.558;9.036;2023-11-19T04:15:36;100300.09;;;20.97;43.24
81937;BME280;71432;56.558;9.036;2023-11-19T04:18:01;100290.22;;;20.99;43.30
81937;BME280;71432;56.558;9.036;2023-11-19T04:20:26;100273.75;;;20.89;43.29
81937;BME280;71432;56.558;9.036;2023-11-19T04:22:52;100285.28;;;20.96;43.42
81937;BME280;71432;56.558;9.036;2023-11-19T04:25:18;100281.50;;;20.99;43.36
81937;BME280;71432;56.558;9.036;2023-11-19T04:27:44;100274.59;;;20.98;43.24
81937;BME280;71432;56.558;9.036;2023-11-19T04:30:10;100274.41;;;20.99;43.26
81937;BME280;71432;56.558;9.036;2023-11-19T04:32:36;100266.72;;;20.98;43.04
81937;BME280;71432;56.558;9.036;2023-11-19T04:35:01;100267.34;;;21.00;43.46
81937;BME280;71432;56.558;9.036;2023-11-19T04:37:27;100260.44;;;20.99;43.33
81937;BME280;71432;56.558;9.036;2023-11-19T04:39:52;100256.19;;;20.98;43.25
81937;BME280;71432;56.558;9.036;2023-11-19T04:42:17;100251.91;;;20.97;43.16
81937;BME280;71432;56.558;9.036;2023-11-19T04:44:43;100240.69;;;20.95;43.41
81937;BME280;71432;56.558;9.036;2023-11-19T04:47:08;100225.91;;;20.94;43.32
81937;BME280;71432;56.558;9.036;2023-11-19T04:49:40;100231.00;;;20.95;43.36
81937;BME280;71432;56.558;9.036;2023-11-19T04:52:08;100216.50;;;20.91;43.47
81937;BME280;71432;56.558;9.036;2023-11-19T04:54:33;100218.00;;;20.94;43.75
81937;BME280;71432;56.558;9.036;2023-11-19T04:56:59;100207.97;;;20.89;43.42
81937;BME280;71432;56.558;9.036;2023-11-19T04:59:24;100209.13;;;20.95;43.21
81937;BME280;71432;56.558;9.036;2023-11-19T05:01:49;100204.03;;;20.93;43.41
81937;BME280;71432;56.558;9.036;2023-11-19T05:04:15;100202.38;;;20.92;43.58
81937;BME280;71432;56.558;9.036;2023-11-19T05:06:41;100203.19;;;20.93;43.71
81937;BME280;71432;56.558;9.036;2023-11-19T05:09:06;100191.03;;;20.92;43.60
81937;BME280;71432;56.558;9.036;2023-11-19T05:11:35;100178.19;;;20.89;43.49
81937;BME280;71432;56.558;9.036;2023-11-19T05:14:04;100184.78;;;20.93;43.55
81937;BME280;71432;56.558;9.036;2023-11-19T05:16:30;100177.19;;;20.90;43.54
81937;BME280;71432;56.558;9.036;2023-11-19T05:18:55;100173.91;;;20.88;43.48
81937;BME280;71432;56.558;9.036;2023-11-19T05:21:20;100168.66;;;20.88;43.50
81937;BME280;71432;56.558;9.036;2023-11-19T05:23:46;100174.06;;;20.86;43.68
81937;BME280;71432;56.558;9.036;2023-11-19T05:26:22;100174.56;;;20.90;43.54
81937;BME280;71432;56.558;9.036;2023-11-19T05:28:48;100175.38;;;20.90;43.56
81937;BME280;71432;56.558;9.036;2023-11-19T05:31:13;100180.84;;;20.89;43.63
81937;BME280;71432;56.558;9.036;2023-11-19T05:33:38;100181.66;;;20.89;43.55
81937;BME280;71432;56.558;9.036;2023-11-19T05:36:05;100187.72;;;20.90;43.44
81937;BME280;71432;56.558;9.036;2023-11-19T05:38:30;100187.72;;;20.90;43.39
81937;BME280;71432;56.558;9.036;2023-11-19T05:40:55;100188.53;;;20.90;43.35
81937;BME280;71432;56.558;9.036;2023-11-19T05:43:22;100184.28;;;20.89;43.46
81937;BME280;71432;56.558;9.036;2023-11-19T05:45:47;100182.44;;;20.90;43.36
81937;BME280;71432;56.558;9.036;2023-11-19T05:48:12;100188.41;;;20.92;43.26
81937;BME280;71432;56.558;9.036;2023-11-19T05:50:38;100183.97;;;20.92;43.43
81937;BME280;71432;56.558;9.036;2023-11-19T05:53:04;100186.75;;;20.91;43.32
81937;BME280;71432;56.558;9.036;2023-11-19T05:55:38;100184.78;;;20.93;43.49
81937;BME280;71432;56.558;9.036;2023-11-19T05:58:11;100183.13;;;20.92;43.45
81937;BME280;71432;56.558;9.036;2023-11-19T06:00:38;100177.03;;;20.91;43.25
81937;BME280;71432;56.558;9.036;2023-11-19T06:03:04;100171.78;;;20.91;43.44
81937;BME280;71432;56.558;9.036;2023-11-19T06:05:29;100160.44;;;20.91;43.50
81937;BME280;71432;56.558;9.036;2023-11-19T06:07:55;100164.22;;;20.88;43.65
81937;BME280;71432;56.558;9.036;2023-11-19T06:10:20;100164.03;;;20.90;43.65
81937;BME280;71432;56.558;9.036;2023-11-19T06:12:46;100153.84;;;20.86;43.58
81937;BME280;71432;56.558;9.036;2023-11-19T06:15:11;100155.34;;;20.89;43.63
81937;BME280;71432;56.558;9.036;2023-11-19T06:17:36;100143.16;;;20.88;43.37
81937;BME280;71432;56.558;9.036;2023-11-19T06:20:04;100144.16;;;20.87;43.53
81937;BME280;71432;56.558;9.036;2023-11-19T06:22:30;100150.38;;;20.86;43.53
81937;BME280;71432;56.558;9.036;2023-11-19T06:24:56;100143.31;;;20.86;43.70
81937;BME280;71432;56.558;9.036;2023-11-19T06:27:21;100141.50;;;20.87;43.45
81937;BME280;71432;56.558;9.036;2023-11-19T06:29:47;100137.41;;;20.84;43.42
81937;BME280;71432;56.558;9.036;2023-11-19T06:32:12;100118.31;;;20.82;43.64
81937;BME280;71432;56.558;9.036;2023-11-19T06:34:38;100120.63;;;20.85;43.42
81937;BME280;71432;56.558;9.036;2023-11-19T06:37:03;100112.38;;;20.80;43.44
81937;BME280;71432;56.558;9.036;2023-11-19T06:39:29;100113.88;;;20.83;43.53
81937;BME280;71432;56.558;9.036;2023-11-19T06:41:54;100121.78;;;20.83;43.64
81937;BME280;71432;56.558;9.036;2023-11-19T06:44:20;100123.72;;;20.81;43.32
81937;BME280;71432;56.558;9.036;2023-11-19T06:46:45;100113.38;;;20.79;43.55
81937;BME280;71432;56.558;9.036;2023-11-19T06:49:11;100122.91;;;20.80;43.68
81937;BME280;71432;56.558;9.036;2023-11-19T06:51:41;100122.91;;;20.80;43.52
81937;BME280;71432;56.558;9.036;2023-11-19T06:54:06;100128.00;;;20.82;43.68
81937;BME280;71432;56.558;9.036;2023-11-19T06:56:32;100121.28;;;20.79;43.65
81937;BME280;71432;56.558;9.036;2023-11-19T06:58:57;100117.81;;;20.79;43.71
81937;BME280;71432;56.558;9.036;2023-11-19T07:01:22;100120.94;;;20.82;43.55
81937;BME280;71432;56.558;9.036;2023-11-19T07:03:48;100105.78;;;20.76;43.41
81937;BME280;71432;56.558;9.036;2023-11-19T07:06:13;100101.72;;;20.82;43.50
81937;BME280;71432;56.558;9.036;2023-11-19T07:08:41;100107.66;;;20.84;43.48
81937;BME280;71432;56.558;9.036;2023-11-19T07:11:06;100107.66;;;20.84;43.44
81937;BME280;71432;56.558;9.036;2023-11-19T07:13:31;100106.63;;;20.85;43.44
81937;BME280;71432;56.558;9.036;2023-11-19T07:15:57;100096.13;;;20.85;43.37
81937;BME280;71432;56.558;9.036;2023-11-19T07:18:23;100102.19;;;20.85;43.45
81937;BME280;71432;56.558;9.036;2023-11-19T07:20:49;100091.03;;;20.83;43.33
81937;BME280;71432;56.558;9.036;2023-11-19T07:23:14;100089.03;;;20.85;43.36
81937;BME280;71432;56.558;9.036;2023-11-19T07:25:42;100084.78;;;20.84;43.25
81937;BME280;71432;56.558;9.036;2023-11-19T07:28:08;100088.22;;;20.85;43.30
81937;BME280;71432;56.558;9.036;2023-11-19T07:30:35;100080.31;;;20.85;43.48
81937;BME280;71432;56.558;9.036;2023-11-19T07:33:00;100079.53;;;20.84;43.42
81937;BME280;71432;56.558;9.036;2023-11-19T07:35:25;100073.59;;;20.82;43.64
81937;BME280;71432;56.558;9.036;2023-11-19T07:37:50;100066.53;;;20.83;43.39
81937;BME280;71432;56.558;9.036;2023-11-19T07:40:16;100065.22;;;20.79;43.43
81937;BME280;71432;56.558;9.036;2023-11-19T07:42:41;100064.06;;;20.81;43.40
81937;BME280;71432;56.558;9.036;2023-11-19T07:45:07;100066.88;;;20.80;43.50
81937;BME280;71432;56.558;9.036;2023-11-19T07:47:32;100068.50;;;20.81;43.61
81937;BME280;71432;56.558;9.036;2023-11-19T07:49:58;100068.50;;;20.81;43.61
81937;BME280;71432;56.558;9.036;2023-11-19T07:52:23;100070.28;;;20.80;43.75
81937;BME280;71432;56.558;9.036;2023-11-19T07:54:48;100052.34;;;20.76;43.64
81937;BME280;71432;56.558;9.036;2023-11-19T07:57:14;100052.06;;;20.79;43.55
81937;BME280;71432;56.558;9.036;2023-11-19T07:59:39;100067.00;;;20.78;43.24
81937;BME280;71432;56.558;9.036;2023-11-19T08:02:05;100064.38;;;20.78;43.65
81937;BME280;71432;56.558;9.036;2023-11-19T08:04:30;100053.53;;;20.73;43.63
81937;BME280;71432;56.558;9.036;2023-11-19T08:06:56;100068.81;;;20.78;43.69
81937;BME280;71432;56.558;9.036;2023-11-19T08:09:21;100060.09;;;20.77;43.57
81937;BME280;71432;56.558;9.036;2023-11-19T08:11:47;100067.00;;;20.78;43.42
81937;BME280;71432;56.558;9.036;2023-11-19T08:14:13;100072.28;;;20.78;43.57
81937;BME280;71432;56.558;9.036;2023-11-19T08:16:41;100065.50;;;20.76;43.49
81937;BME280;71432;56.558;9.036;2023-11-19T08:19:06;100056.66;;;20.77;43.78
81937;BME280;71432;56.558;9.036;2023-11-19T08:21:32;100054.69;;;20.79;43.57
81937;BME280;71432;56.558;9.036;2023-11-19T08:23:57;100047.09;;;20.76;43.73
81937;BME280;71432;56.558;9.036;2023-11-19T08:26:22;100058.16;;;20.79;43.61
81937;BME280;71432;56.558;9.036;2023-11-19T08:28:48;100063.56;;;20.78;43.64
81937;BME280;71432;56.558;9.036;2023-11-19T08:31:13;100065.22;;;20.79;43.61
81937;BME280;71432;56.558;9.036;2023-11-19T08:33:38;100060.78;;;20.79;43.53
81937;BME280;71432;56.558;9.036;2023-11-19T08:36:04;100063.41;;;20.79;43.74
81937;BME280;71432;56.558;9.036;2023-11-19T08:38:30;100051.22;;;20.78;43.61
81937;BME280;71432;56.558;9.036;2023-11-19T08:40:55;100057.97;;;20.81;43.75
81937;BME280;71432;56.558;9.036;2023-11-19T08:43:26;100051.72;;;20.82;43.63
81937;BME280;71432;56.558;9.036;2023-11-19T08:45:51;100051.88;;;20.80;43.66
81937;BME280;71432;56.558;9.036;2023-11-19T08:48:16;100052.56;;;20.82;43.64
81937;BME280;71432;56.558;9.036;2023-11-19T08:50:43;100060.44;;;20.82;43.85
81937;BME280;71432;56.558;9.036;2023-11-19T08:53:08;100057.97;;;20.81;43.64
81937;BME280;71432;56.558;9.036;2023-11-19T08:55:33;100051.06;;;20.80;43.87
81937;BME280;71432;56.558;9.036;2023-11-19T08:57:59;100052.56;;;20.82;43.87
81937;BME280;71432;56.558;9.036;2023-11-19T09:00:24;100044.81;;;20.81;43.83
81937;BME280;71432;56.558;9.036;2023-11-19T09:02:49;100036.28;;;20.79;43.73
81937;BME280;71432;56.558;9.036;2023-11-19T09:05:15;100050.91;;;20.81;43.77
81937;BME280;71432;56.558;9.036;2023-11-19T09:07:40;100050.25;;;20.79;43.96
81937;BME280;71432;56.558;9.036;2023-11-19T09:10:06;100046.63;;;20.80;43.83
81937;BME280;71432;56.558;9.036;2023-11-19T09:12:33;100051.88;;;20.80;43.74
81937;BME280;71432;56.558;9.036;2023-11-19T09:14:59;100046.63;;;20.80;43.85
81937;BME280;71432;56.558;9.036;2023-11-19T09:17:24;100049.25;;;20.80;43.89
81937;BME280;71432;56.558;9.036;2023-11-19T09:19:49;100051.88;;;20.80;44.04
81937;BME280;71432;56.558;9.036;2023-11-19T09:22:15;100050.06;;;20.81;43.97
81937;BME280;71432;56.558;9.036;2023-11-19T09:24:40;100056.16;;;20.81;43.83
81937;BME280;71432;56.558;9.036;2023-11-19T09:27:05;100057.13;;;20.80;44.13
81937;BME280;71432;56.558;9.036;2023-11-19T09:29:31;100056.34;;;20.80;44.07
81937;BME280;71432;56.558;9.036;2023-11-19T09:31:57;100061.59;;;20.80;44.22
81937;BME280;71432;56.558;9.036;2023-11-19T09:34:23;100061.75;;;20.78;44.34
81937;BME280;71432;56.558;9.036;2023-11-19T09:36:48;100060.94;;;20.78;44.13
81937;BME280;71432;56.558;9.036;2023-11-19T09:39:13;100060.94;;;20.78;44.05
81937;BME280;71432;56.558;9.036;2023-11-19T09:41:46;100073.09;;;20.79;44.35
81937;BME280;71432;56.558;9.036;2023-11-19T09:44:11;100056.50;;;20.78;44.02
81937;BME280;71432;56.558;9.036;2023-11-19T09:46:38;100061.75;;;20.78;43.87
81937;BME280;71432;56.558;9.036;2023-11-19T09:49:06;100052.69;;;20.81;44.20
81937;BME280;71432;56.558;9.036;2023-11-19T09:51:34;100059.75;;;20.80;44.11
81937;BME280;71432;56.558;9.036;2023-11-19T09:54:00;100056.16;;;20.81;44.00
81937;BME280;71432;56.558;9.036;2023-11-19T09:56:26;100050.91;;;20.81;43.78
81937;BME280;71432;56.558;9.036;2023-11-19T09:58:53;100050.75;;;20.83;44.06
81937;BME280;71432;56.558;9.036;2023-11-19T10:01:18;100047.28;;;20.82;43.80
81937;BME280;71432;56.558;9.036;2023-11-19T10:03:46;100044.81;;;20.81;43.93
81937;BME280;71432;56.558;9.036;2023-11-19T10:06:12;100045.47;;;20.83;43.94
81937;BME280;71432;56.558;9.036;2023-11-19T10:08:40;100040.22;;;20.83;44.02
81937;BME280;71432;56.558;9.036;2023-11-19T10:11:07;100032.97;;;20.85;44.20
81937;BME280;71432;56.558;9.036;2023-11-19T10:13:35;100035.59;;;20.85;44.18
81937;BME280;71432;56.558;9.036;2023-11-19T10:16:06;100031.16;;;20.85;44.06
81937;BME280;71432;56.558;9.036;2023-11-19T10:18:32;100025.06;;;20.85;43.95
81937;BME280;71432;56.558;9.036;2023-11-19T10:21:03;100022.63;;;20.83;44.00
81937;BME280;71432;56.558;9.036;2023-11-19T10:23:28;100032.81;;;20.86;44.15
81937;BME280;71432;56.558;9.036;2023-11-19T10:25:54;100021.66;;;20.84;44.43
81937;BME280;71432;56.558;9.036;2023-11-19T10:28:19;100033.81;;;20.85;44.34
81937;BME280;71432;56.558;9.036;2023-11-19T10:30:48;100042.50;;;20.86;44.22
81937;BME280;71432;56.558;9.036;2023-11-19T10:33:13;100037.94;;;20.88;44.26
81937;BME280;71432;56.558;9.036;2023-11-19T10:35:58;100037.94;;;20.88;44.38
81937;BME280;71432;56.558;9.036;2023-11-19T10:38:25;100043.34;;;20.86;44.24
81937;BME280;71432;56.558;9.036;2023-11-19T10:40:52;100024.28;;;20.84;44.52
81937;BME280;71432;56.558;9.036;2023-11-19T10:43:18;100034.13;;;20.91;44.49
81937;BME280;71432;56.558;9.036;2023-11-19T10:45:44;100032.66;;;20.88;44.38
81937;BME280;71432;56.558;9.036;2023-11-19T10:48:09;100037.75;;;20.90;44.59
81937;BME280;71432;56.558;9.036;2023-11-19T10:50:39;100035.94;;;20.90;44.46
81937;BME280;71432;56.558;9.036;2023-11-19T10:53:06;100032.31;;;20.91;44.75
81937;BME280;71432;56.558;9.036;2023-11-19T10:55:38;100028.72;;;20.92;44.53
81937;BME280;71432;56.558;9.036;2023-11-19T10:58:05;100028.72;;;20.92;44.80
81937;BME280;71432;56.558;9.036;2023-11-19T11:03:15;100029.34;;;20.94;43.84
81937;BME280;71432;56.558;9.036;2023-11-19T11:05:42;100016.22;;;20.86;42.03
81937;BME280;71432;56.558;9.036;2023-11-19T11:08:07;100014.88;;;20.90;42.83
81937;BME280;71432;56.558;9.036;2023-11-19T11:10:39;100022.63;;;21.00;43.19
81937;BME280;71432;56.558;9.036;2023-11-19T11:13:07;100016.88;;;21.04;43.07
81937;BME280;71432;56.558;9.036;2023-11-19T11:15:33;100004.69;;;21.03;43.07
81937;BME280;71432;56.558;9.036;2023-11-19T11:18:01;100017.88;;;21.11;43.23
81937;BME280;71432;56.558;9.036;2023-11-19T11:20:28;100014.94;;;21.14;43.16
81937;BME280;71432;56.558;9.036;2023-11-19T11:23:11;100016.41;;;21.17;43.04
81937;BME280;71432;56.558;9.036;2023-11-19T11:26:00;100010.97;;;21.18;43.02
81937;BME280;71432;56.558;9.036;2023-11-19T11:28:43;100002.94;;;21.20;43.17
81937;BME280;71432;56.558;9.036;2023-11-19T11:31:25;100013.59;;;21.26;42.96
81937;BME280;71432;56.558;9.036;2023-11-19T11:36:31;100005.53;;;21.36;43.16
81937;BME280;71432;56.558;9.036;2023-11-19T11:39:01;100005.22;;;21.39;43.26
81937;BME280;71432;56.558;9.036;2023-11-19T11:41:32;99998.63;;;21.43;42.90
81937;BME280;71432;56.558;9.036;2023-11-19T11:43:58;100006.16;;;21.46;43.06
81937;BME280;71432;56.558;9.036;2023-11-19T11:54:08;100010.28;;;21.57;43.14
81937;BME280;71432;56.558;9.036;2023-11-19T11:56:37;100008.47;;;21.57;43.25
81937;BME280;71432;56.558;9.036;2023-11-19T11:59:03;100003.00;;;21.59;43.09
81937;BME280;71432;56.558;9.036;2023-11-19T12:01:29;100005.66;;;21.59;42.94
81937;BME280;71432;56.558;9.036;2023-11-19T12:03:55;100013.53;;;21.59;42.97
81937;BME280;71432;56.558;9.036;2023-11-19T12:06:22;100009.25;;;21.58;42.96
81937;BME280;71432;56.558;9.036;2023-11-19T12:08:47;100010.09;;;21.58;42.76
81937;BME280;71432;56.558;9.036;2023-11-19T12:11:13;100007.28;;;21.60;42.84
81937;BME280;71432;56.558;9.036;2023-11-19T12:13:56;100006.63;;;21.58;42.94
81937;BME280;71432;56.558;9.036;2023-11-19T12:16:24;99999.06;;;21.55;42.79
81937;BME280;71432;56.558;9.036;2023-11-19T12:18:49;100000.56;;;21.57;42.78
81937;BME280;71432;56.558;9.036;2023-11-19T12:21:31;100000.56;;;21.57;42.83
81937;BME280;71432;56.558;9.036;2023-11-19T12:23:58;100001.53;;;21.56;42.84
81937;BME280;71432;56.558;9.036;2023-11-19T12:26:32;100002.38;;;21.57;42.55
81937;BME280;71432;56.558;9.036;2023-11-19T12:28:59;99995.78;;;21.61;42.61
81937;BME280;71432;56.558;9.036;2023-11-19T12:31:26;99999.53;;;21.58;42.75
81937;BME280;71432;56.558;9.036;2023-11-19T12:33:51;100002.03;;;21.60;42.82
81937;BME280;71432;56.558;9.036;2023-11-19T12:36:17;100004.00;;;21.58;42.69
81937;BME280;71432;56.558;9.036;2023-11-19T12:38:43;100011.09;;;21.57;42.77
81937;BME280;71432;56.558;9.036;2023-11-19T12:41:10;100001.88;;;21.61;42.54
81937;BME280;71432;56.558;9.036;2023-11-19T12:43:37;100004.81;;;21.66;42.67
81937;BME280;71432;56.558;9.036;2023-11-19T12:46:23;99998.38;;;21.69;42.54
81937;BME280;71432;56.558;9.036;2023-11-19T12:48:49;99998.22;;;21.70;42.71
81937;BME280;71432;56.558;9.036;2023-11-19T12:51:15;99994.75;;;21.70;42.85
81937;BME280;71432;56.558;9.036;2023-11-19T12:53:51;99998.84;;;21.72;42.84
81937;BME280;71432;56.558;9.036;2023-11-19T12:56:20;100004.59;;;21.76;42.83
81937;BME280;71432;56.558;9.036;2023-11-19T12:58:46;100004.28;;;21.79;42.91
81937;BME280;71432;56.558;9.036;2023-11-19T13:01:17;100007.06;;;21.78;42.83